Terminal Aerodrome Forecast
Issued by NWS

Home | Current Version | Previous Version | Text Only | Print | Product List | Glossary On
Versions: 1 2 3 4 5 6 7 8 9 10 11 12 13 14 15 16 17 18 19 20 21
000
FTUS45 KBOU 282208 AAC
TAFBJC
TAF AMD
KBJC 282208Z 2822/2918 02012KT P6SM SCT070 BKN120
     FM282300 10007KT P6SM SCT070 BKN150
     FM290200 28009KT P6SM FEW080 SCT150
     FM291500 VRB05KT P6SM SCT080 SCT160=

USA.gov is the U.S. government's official web portal to all federal, state and local government web resources and services.